sensor_id;sensor_type;location;lat;lon;timestamp;pressure;altitude;pressure_sealevel;temperature;humidity
19748;BME280;10032;51.386;12.516;2023-11-21T00:01:44;99479.78;;;9.17;100.00
19748;BME280;10032;51.386;12.516;2023-11-21T00:04:09;99471.13;;;9.15;100.00
19748;BME280;10032;51.386;12.516;2023-11-21T00:06:35;99472.47;;;9.12;100.00
19748;BME280;10032;51.386;12.516;2023-11-21T00:09:00;99478.34;;;9.09;100.00
19748;BME280;10032;51.386;12.516;2023-11-21T00:11:26;99474.50;;;9.00;100.00
19748;BME280;10032;51.386;12.516;2023-11-21T00:13:51;99481.75;;;8.95;100.00
19748;BME280;10032;51.386;12.516;2023-11-21T00:16:17;99484.94;;;8.92;100.00
19748;BME280;10032;51.386;12.516;2023-11-21T00:18:42;99489.00;;;8.89;100.00
19748;BME280;10032;51.386;12.516;2023-11-21T00:21:08;99499.16;;;8.82;100.00
19748;BME280;10032;51.386;12.516;2023-11-21T00:23:34;99502.06;;;8.76;100.00
19748;BME280;10032;51.386;12.516;2023-11-21T00:26:00;99489.84;;;8.68;100.00
19748;BME280;10032;51.386;12.516;2023-11-21T00:28:26;99489.22;;;8.61;100.00
19748;BME280;10032;51.386;12.516;2023-11-21T00:30:51;99488.91;;;8.58;100.00
19748;BME280;10032;51.386;12.516;2023-11-21T00:33:17;99512.91;;;8.54;100.00
19748;BME280;10032;51.386;12.516;2023-11-21T00:35:42;99509.06;;;8.50;100.00
19748;BME280;10032;51.386;12.516;2023-11-21T00:38:07;99509.59;;;8.47;100.00
19748;BME280;10032;51.386;12.516;2023-11-21T00:40:33;99520.94;;;8.49;100.00
19748;BME280;10032;51.386;12.516;2023-11-21T00:42:59;99507.50;;;8.54;100.00
19748;BME280;10032;51.386;12.516;2023-11-21T00:45:24;99506.88;;;8.47;100.00
19748;BME280;10032;51.386;12.516;2023-11-21T00:47:50;99502.22;;;8.43;100.00
19748;BME280;10032;51.386;12.516;2023-11-21T00:50:16;99505.75;;;8.43;100.00
19748;BME280;10032;51.386;12.516;2023-11-21T00:52:41;99502.69;;;8.35;100.00
19748;BME280;10032;51.386;12.516;2023-11-21T00:55:07;99506.75;;;8.37;100.00
19748;BME280;10032;51.386;12.516;2023-11-21T00:57:34;99509.19;;;8.39;100.00
19748;BME280;10032;51.386;12.516;2023-11-21T00:59:59;99514.25;;;8.35;100.00
19748;BME280;10032;51.386;12.516;2023-11-21T01:02:25;99516.72;;;8.37;100.00
19748;BME280;10032;51.386;12.516;2023-11-21T01:04:51;99516.97;;;8.35;100.00
19748;BME280;10032;51.386;12.516;2023-11-21T01:07:16;99520.44;;;8.31;100.00
19748;BME280;10032;51.386;12.516;2023-11-21T01:09:42;99523.13;;;8.31;100.00
19748;BME280;10032;51.386;12.516;2023-11-21T01:12:09;99520.19;;;8.32;100.00
19748;BME280;10032;51.386;12.516;2023-11-21T01:14:34;99513.16;;;8.31;100.00
19748;BME280;10032;51.386;12.516;2023-11-21T01:17:00;99520.19;;;8.32;100.00
19748;BME280;10032;51.386;12.516;2023-11-21T01:19:26;99518.28;;;8.33;100.00
19748;BME280;10032;51.386;12.516;2023-11-21T01:21:51;99519.34;;;8.32;100.00
19748;BME280;10032;51.386;12.516;2023-11-21T01:24:18;99526.13;;;8.34;100.00
19748;BME280;10032;51.386;12.516;2023-11-21T01:26:43;99530.97;;;8.32;100.00
19748;BME280;10032;51.386;12.516;2023-11-21T01:29:10;99533.09;;;8.30;100.00
19748;BME280;10032;51.386;12.516;2023-11-21T01:31:36;99537.16;;;8.33;100.00
19748;BME280;10032;51.386;12.516;2023-11-21T01:34:01;99540.44;;;8.35;100.00
19748;BME280;10032;51.386;12.516;2023-11-21T01:36:33;99532.91;;;8.37;100.00
19748;BME280;10032;51.386;12.516;2023-11-21T01:38:59;99539.22;;;8.42;100.00
19748;BME280;10032;51.386;12.516;2023-11-21T01:41:28;99536.00;;;8.45;100.00
19748;BME280;10032;51.386;12.516;2023-11-21T01:43:54;99540.59;;;8.45;100.00
19748;BME280;10032;51.386;12.516;2023-11-21T01:46:20;99539.28;;;8.47;100.00
19748;BME280;10032;51.386;12.516;2023-11-21T01:48:47;99530.91;;;8.49;100.00
19748;BME280;10032;51.386;12.516;2023-11-21T01:51:13;99533.88;;;8.47;100.00
19748;BME280;10032;51.386;12.516;2023-11-21T01:53:39;99540.91;;;8.48;100.00
19748;BME280;10032;51.386;12.516;2023-11-21T01:56:05;99538.75;;;8.50;100.00
19748;BME280;10032;51.386;12.516;2023-11-21T01:58:33;99542.03;;;8.52;100.00
19748;BME280;10032;51.386;12.516;2023-11-21T02:00:58;99544.22;;;8.55;100.00
19748;BME280;10032;51.386;12.516;2023-11-21T02:03:24;99551.25;;;8.56;100.00
19748;BME280;10032;51.386;12.516;2023-11-21T02:05:52;99545.34;;;8.59;100.00
19748;BME280;10032;51.386;12.516;2023-11-21T02:08:18;99557.84;;;8.65;100.00
19748;BME280;10032;51.386;12.516;2023-11-21T02:10:45;99558.41;;;8.67;100.00
19748;BME280;10032;51.386;12.516;2023-11-21T02:13:11;99557.91;;;8.70;100.00
19748;BME280;10032;51.386;12.516;2023-11-21T02:15:37;99566.88;;;8.76;100.00
19748;BME280;10032;51.386;12.516;2023-11-21T02:18:04;99567.94;;;8.75;100.00
19748;BME280;10032;51.386;12.516;2023-11-21T02:20:31;99562.22;;;8.71;100.00
19748;BME280;10032;51.386;12.516;2023-11-21T02:23:00;99563.31;;;8.70;100.00
19748;BME280;10032;51.386;12.516;2023-11-21T02:25:32;99562.78;;;8.73;100.00
19748;BME280;10032;51.386;12.516;2023-11-21T02:28:02;99559.03;;;8.74;100.00
19748;BME280;10032;51.386;12.516;2023-11-21T02:30:28;99557.97;;;8.75;100.00
19748;BME280;10032;51.386;12.516;2023-11-21T02:32:54;99559.09;;;8.79;100.00
19748;BME280;10032;51.386;12.516;2023-11-21T02:35:23;99561.59;;;8.86;100.00
19748;BME280;10032;51.386;12.516;2023-11-21T02:37:49;99563.56;;;8.90;100.00
19748;BME280;10032;51.386;12.516;2023-11-21T02:40:15;99555.44;;;8.90;100.00
19748;BME280;10032;51.386;12.516;2023-11-21T02:42:46;99559.53;;;8.93;100.00
19748;BME280;10032;51.386;12.516;2023-11-21T02:45:13;99552.75;;;8.90;100.00
19748;BME280;10032;51.386;12.516;2023-11-21T02:47:42;99559.78;;;8.91;100.00
19748;BME280;10032;51.386;12.516;2023-11-21T02:50:08;99549.53;;;8.93;100.00
19748;BME280;10032;51.386;12.516;2023-11-21T02:52:35;99551.97;;;8.95;100.00
19748;BME280;10032;51.386;12.516;2023-11-21T02:55:01;99557.06;;;8.91;100.00
19748;BME280;10032;51.386;12.516;2023-11-21T02:57:27;99553.81;;;8.89;100.00
19748;BME280;10032;51.386;12.516;2023-11-21T02:59:52;99563.78;;;8.89;100.00
19748;BME280;10032;51.386;12.516;2023-11-21T03:02:17;99553.25;;;8.87;100.00
19748;BME280;10032;51.386;12.516;2023-11-21T03:04:43;99556.47;;;8.84;100.00
19748;BME280;10032;51.386;12.516;2023-11-21T03:07:09;99556.47;;;8.84;100.00
19748;BME280;10032;51.386;12.516;2023-11-21T03:09:35;99556.97;;;8.81;100.00
19748;BME280;10032;51.386;12.516;2023-11-21T03:12:00;99549.69;;;8.82;100.00
19748;BME280;10032;51.386;12.516;2023-11-21T03:14:26;99554.50;;;8.80;100.00
19748;BME280;10032;51.386;12.516;2023-11-21T03:16:51;99559.59;;;8.76;100.00
19748;BME280;10032;51.386;12.516;2023-11-21T03:19:16;99559.59;;;8.76;100.00
19748;BME280;10032;51.386;12.516;2023-11-21T03:21:42;99561.75;;;8.74;100.00
19748;BME280;10032;51.386;12.516;2023-11-21T03:24:08;99556.84;;;8.71;100.00
19748;BME280;10032;51.386;12.516;2023-11-21T03:26:33;99555.69;;;8.67;100.00
19748;BME280;10032;51.386;12.516;2023-11-21T03:28:58;99560.47;;;8.60;100.00
19748;BME280;10032;51.386;12.516;2023-11-21T03:31:24;99557.22;;;8.58;100.00
19748;BME280;10032;51.386;12.516;2023-11-21T03:33:49;99563.19;;;8.60;100.00
19748;BME280;10032;51.386;12.516;2023-11-21T03:36:15;99560.47;;;8.60;100.00
19748;BME280;10032;51.386;12.516;2023-11-21T03:38:40;99567.50;;;8.61;100.00
19748;BME280;10032;51.386;12.516;2023-11-21T03:41:07;99568.81;;;8.59;100.00
19748;BME280;10032;51.386;12.516;2023-11-21T03:43:35;99565.06;;;8.60;100.00
19748;BME280;10032;51.386;12.516;2023-11-21T03:46:01;99570.78;;;8.63;100.00
19748;BME280;10032;51.386;12.516;2023-11-21T03:48:27;99573.22;;;8.65;100.00
19748;BME280;10032;51.386;12.516;2023-11-21T03:50:52;99573.81;;;8.67;100.00
19748;BME280;10032;51.386;12.516;2023-11-21T03:53:17;99570.84;;;8.68;100.00
19748;BME280;10032;51.386;12.516;2023-11-21T03:55:43;99579.50;;;8.70;100.00
19748;BME280;10032;51.386;12.516;2023-11-21T03:58:08;99581.44;;;8.75;100.00
19748;BME280;10032;51.386;12.516;2023-11-21T04:00:33;99574.47;;;8.79;100.00
19748;BME280;10032;51.386;12.516;2023-11-21T04:02:59;99584.78;;;8.82;100.00
19748;BME280;10032;51.386;12.516;2023-11-21T04:05:24;99590.19;;;8.82;100.00
19748;BME280;10032;51.386;12.516;2023-11-21T04:07:50;99584.78;;;8.82;100.00
19748;BME280;10032;51.386;12.516;2023-11-21T04:10:16;99584.50;;;8.83;100.00
19748;BME280;10032;51.386;12.516;2023-11-21T04:12:41;99593.75;;;8.87;100.00
19748;BME280;10032;51.386;12.516;2023-11-21T04:15:07;99582.47;;;8.90;100.00
19748;BME280;10032;51.386;12.516;2023-11-21T04:17:34;99592.19;;;8.91;100.00
19748;BME280;10032;51.386;12.516;2023-11-21T04:20:00;99596.53;;;8.92;100.00
19748;BME280;10032;51.386;12.516;2023-11-21T04:22:25;99591.41;;;8.96;100.00
19748;BME280;10032;51.386;12.516;2023-11-21T04:24:50;99595.75;;;8.97;100.00
19748;BME280;10032;51.386;12.516;2023-11-21T04:27:16;99597.13;;;8.99;100.00
19748;BME280;10032;51.386;12.516;2023-11-21T04:29:43;99593.38;;;9.00;100.00
19748;BME280;10032;51.386;12.516;2023-11-21T04:32:09;99601.22;;;9.02;100.00
19748;BME280;10032;51.386;12.516;2023-11-21T04:34:35;99597.47;;;9.03;100.00
19748;BME280;10032;51.386;12.516;2023-11-21T04:37:00;99599.59;;;9.01;100.00
19748;BME280;10032;51.386;12.516;2023-11-21T04:39:26;99611.78;;;9.03;100.00
19748;BME280;10032;51.386;12.516;2023-11-21T04:41:51;99605.81;;;9.01;100.00
19748;BME280;10032;51.386;12.516;2023-11-21T04:44:17;99609.06;;;9.03;100.00
19748;BME280;10032;51.386;12.516;2023-11-21T04:46:42;99611.84;;;9.08;100.00
19748;BME280;10032;51.386;12.516;2023-11-21T04:49:08;99621.00;;;9.07;100.00
19748;BME280;10032;51.386;12.516;2023-11-21T04:51:33;99615.63;;;9.07;100.00
19748;BME280;10032;51.386;12.516;2023-11-21T04:53:59;99612.59;;;9.04;100.00
19748;BME280;10032;51.386;12.516;2023-11-21T04:56:24;99613.41;;;9.04;100.00
19748;BME280;10032;51.386;12.516;2023-11-21T04:58:50;99622.34;;;9.05;100.00
19748;BME280;10032;51.386;12.516;2023-11-21T05:01:15;99622.63;;;9.08;100.00
19748;BME280;10032;51.386;12.516;2023-11-21T05:03:41;99621.56;;;9.09;100.00
19748;BME280;10032;51.386;12.516;2023-11-21T05:06:09;99623.19;;;9.10;100.00
19748;BME280;10032;51.386;12.516;2023-11-21T05:08:34;99618.88;;;9.09;100.00
19748;BME280;10032;51.386;12.516;2023-11-21T05:11:00;99626.47;;;9.12;100.00
19748;BME280;10032;51.386;12.516;2023-11-21T05:13:25;99631.88;;;9.12;100.00
19748;BME280;10032;51.386;12.516;2023-11-21T05:15:56;99624.03;;;9.11;100.00
19748;BME280;10032;51.386;12.516;2023-11-21T05:18:25;99638.66;;;9.15;100.00
19748;BME280;10032;51.386;12.516;2023-11-21T05:20:55;99635.13;;;9.14;100.00
19748;BME280;10032;51.386;12.516;2023-11-21T05:23:20;99635.38;;;9.13;100.00
19748;BME280;10032;51.386;12.516;2023-11-21T05:25:45;99642.75;;;9.17;100.00
19748;BME280;10032;51.386;12.516;2023-11-21T05:28:12;99641.63;;;9.13;100.00
19748;BME280;10032;51.386;12.516;2023-11-21T05:30:37;99649.47;;;9.15;100.00
19748;BME280;10032;51.386;12.516;2023-11-21T05:33:04;99647.03;;;9.13;100.00
19748;BME280;10032;51.386;12.516;2023-11-21T05:35:30;99644.81;;;9.10;100.00
19748;BME280;10032;51.386;12.516;2023-11-21T05:37:56;99641.63;;;9.13;100.00
19748;BME280;10032;51.386;12.516;2023-11-21T05:40:21;99647.28;;;9.12;100.00
19748;BME280;10032;51.386;12.516;2023-11-21T05:42:47;99652.44;;;9.13;100.00
19748;BME280;10032;51.386;12.516;2023-11-21T05:45:13;99657.34;;;9.16;100.00
19748;BME280;10032;51.386;12.516;2023-11-21T05:47:44;99655.69;;;9.15;100.00
19748;BME280;10032;51.386;12.516;2023-11-21T05:50:12;99655.69;;;9.15;100.00
19748;BME280;10032;51.386;12.516;2023-11-21T05:52:40;99663.72;;;9.10;100.00
19748;BME280;10032;51.386;12.516;2023-11-21T05:55:06;99657.78;;;9.08;100.00
19748;BME280;10032;51.386;12.516;2023-11-21T05:57:38;99664.31;;;9.12;100.00
19748;BME280;10032;51.386;12.516;2023-11-21T06:00:04;99661.91;;;9.16;100.00
19748;BME280;10032;51.386;12.516;2023-11-21T06:02:41;99656.19;;;9.12;100.00
19748;BME280;10032;51.386;12.516;2023-11-21T06:05:08;99652.19;;;9.15;100.00
19748;BME280;10032;51.386;12.516;2023-11-21T06:07:33;99655.75;;;9.20;100.00
19748;BME280;10032;51.386;12.516;2023-11-21T06:10:01;99652.44;;;9.13;100.00
19748;BME280;10032;51.386;12.516;2023-11-21T06:12:28;99657.00;;;9.13;100.00
19748;BME280;10032;51.386;12.516;2023-11-21T06:14:53;99663.78;;;9.15;100.00
19748;BME280;10032;51.386;12.516;2023-11-21T06:17:18;99661.09;;;9.15;100.00
19748;BME280;10032;51.386;12.516;2023-11-21T06:19:44;99668.63;;;9.13;100.00
19748;BME280;10032;51.386;12.516;2023-11-21T06:22:11;99667.00;;;9.12;100.00
19748;BME280;10032;51.386;12.516;2023-11-21T06:24:36;99670.78;;;9.11;100.00
19748;BME280;10032;51.386;12.516;2023-11-21T06:27:03;99664.88;;;9.14;100.00
19748;BME280;10032;51.386;12.516;2023-11-21T06:29:30;99671.91;;;9.15;100.00
19748;BME280;10032;51.386;12.516;2023-11-21T06:31:55;99677.31;;;9.15;100.00
19748;BME280;10032;51.386;12.516;2023-11-21T06:34:20;99679.50;;;9.18;100.00
19748;BME280;10032;51.386;12.516;2023-11-21T06:36:47;99688.44;;;9.19;100.00
19748;BME280;10032;51.386;12.516;2023-11-21T06:39:12;99689.50;;;9.18;100.00
19748;BME280;10032;51.386;12.516;2023-11-21T06:41:40;99688.88;;;9.11;100.00
19748;BME280;10032;51.386;12.516;2023-11-21T06:44:05;99691.09;;;9.14;100.00
19748;BME280;10032;51.386;12.516;2023-11-21T06:46:30;99702.69;;;9.14;100.00
19748;BME280;10032;51.386;12.516;2023-11-21T06:48:56;99695.66;;;9.13;100.00
19748;BME280;10032;51.386;12.516;2023-11-21T06:51:21;99699.44;;;9.12;100.00
19748;BME280;10032;51.386;12.516;2023-11-21T06:53:47;99697.28;;;9.14;100.00
19748;BME280;10032;51.386;12.516;2023-11-21T06:56:18;99705.66;;;9.13;100.00
19748;BME280;10032;51.386;12.516;2023-11-21T06:58:47;99701.84;;;9.09;100.00
19748;BME280;10032;51.386;12.516;2023-11-21T07:01:13;99708.56;;;9.06;100.00
19748;BME280;10032;51.386;12.516;2023-11-21T07:03:39;99709.94;;;9.09;100.00
19748;BME280;10032;51.386;12.516;2023-11-21T07:06:05;99714.75;;;9.07;100.00
19748;BME280;10032;51.386;12.516;2023-11-21T07:08:30;99712.56;;;9.04;100.00
19748;BME280;10032;51.386;12.516;2023-11-21T07:10:56;99716.91;;;9.05;100.00
19748;BME280;10032;51.386;12.516;2023-11-21T07:13:22;99723.06;;;9.00;100.00
19748;BME280;10032;51.386;12.516;2023-11-21T07:15:47;99731.19;;;9.00;100.00
19748;BME280;10032;51.386;12.516;2023-11-21T07:18:13;99726.25;;;8.97;100.00
19748;BME280;10032;51.386;12.516;2023-11-21T07:20:38;99728.41;;;8.95;100.00
19748;BME280;10032;51.386;12.516;2023-11-21T07:23:04;99739.44;;;8.94;100.00
19748;BME280;10032;51.386;12.516;2023-11-21T07:25:29;99738.63;;;8.93;100.00
19748;BME280;10032;51.386;12.516;2023-11-21T07:27:54;99733.22;;;8.93;100.00
19748;BME280;10032;51.386;12.516;2023-11-21T07:30:20;99741.09;;;8.95;100.00
19748;BME280;10032;51.386;12.516;2023-11-21T07:32:47;99742.72;;;8.96;100.00
19748;BME280;10032;51.386;12.516;2023-11-21T07:35:13;99738.88;;;8.92;100.00
19748;BME280;10032;51.386;12.516;2023-11-21T07:37:39;99746.72;;;8.93;100.00
19748;BME280;10032;51.386;12.516;2023-11-21T07:40:05;99738.88;;;8.92;100.00
19748;BME280;10032;51.386;12.516;2023-11-21T07:42:31;99744.03;;;8.93;100.00
19748;BME280;10032;51.386;12.516;2023-11-21T07:44:56;99744.84;;;8.94;100.00
19748;BME280;10032;51.386;12.516;2023-11-21T07:47:22;99748.63;;;8.93;100.00
19748;BME280;10032;51.386;12.516;2023-11-21T07:49:47;99755.03;;;8.87;100.00
19748;BME280;10032;51.386;12.516;2023-11-21T07:52:13;99757.56;;;8.77;100.00
19748;BME280;10032;51.386;12.516;2023-11-21T07:54:41;99757.66;;;8.65;100.00
19748;BME280;10032;51.386;12.516;2023-11-21T07:57:07;99767.22;;;8.56;100.00
19748;BME280;10032;51.386;12.516;2023-11-21T07:59:32;99764.22;;;8.53;100.00
19748;BME280;10032;51.386;12.516;2023-11-21T08:01:58;99770.13;;;8.50;100.00
19748;BME280;10032;51.386;12.516;2023-11-21T08:04:23;99783.00;;;8.48;100.00
19748;BME280;10032;51.386;12.516;2023-11-21T08:06:48;99780.56;;;8.46;100.00
19748;BME280;10032;51.386;12.516;2023-11-21T08:09:14;99777.69;;;8.36;100.00
19748;BME280;10032;51.386;12.516;2023-11-21T08:11:40;99792.94;;;8.42;100.00
19748;BME280;10032;51.386;12.516;2023-11-21T08:14:06;99793.81;;;8.48;100.00
19748;BME280;10032;51.386;12.516;2023-11-21T08:16:31;99797.81;;;8.45;100.00
19748;BME280;10032;51.386;12.516;2023-11-21T08:18:57;99804.75;;;8.41;100.00
19748;BME280;10032;51.386;12.516;2023-11-21T08:21:22;99801.50;;;8.39;100.00
19748;BME280;10032;51.386;12.516;2023-11-21T08:23:54;99803.13;;;8.40;100.00
19748;BME280;10032;51.386;12.516;2023-11-21T08:26:23;99806.56;;;8.36;100.00
19748;BME280;10032;51.386;12.516;2023-11-21T08:28:49;99814.09;;;8.34;100.00
19748;BME280;10032;51.386;12.516;2023-11-21T08:31:14;99807.00;;;8.44;100.00
19748;BME280;10032;51.386;12.516;2023-11-21T08:33:41;99808.72;;;8.50;100.00
19748;BME280;10032;51.386;12.516;2023-11-21T08:36:10;99814.63;;;8.47;100.00
19748;BME280;10032;51.386;12.516;2023-11-21T08:38:37;99815.75;;;8.51;100.00
19748;BME280;10032;51.386;12.516;2023-11-21T08:41:05;99816.47;;;8.47;100.00
19748;BME280;10032;51.386;12.516;2023-11-21T08:43:34;99820.50;;;8.44;100.00
19748;BME280;10032;51.386;12.516;2023-11-21T08:46:00;99825.97;;;8.49;100.00
19748;BME280;10032;51.386;12.516;2023-11-21T08:48:25;99843.38;;;8.42;100.00
19748;BME280;10032;51.386;12.516;2023-11-21T08:50:53;99843.72;;;8.45;100.00
19748;BME280;10032;51.386;12.516;2023-11-21T08:53:19;99847.84;;;8.36;100.00
19748;BME280;10032;51.386;12.516;2023-11-21T08:55:44;99847.38;;;8.39;100.00
19748;BME280;10032;51.386;12.516;2023-11-21T08:58:10;99845.66;;;8.33;100.00
19748;BME280;10032;51.386;12.516;2023-11-21T09:00:37;99855.53;;;8.28;100.00
19748;BME280;10032;51.386;12.516;2023-11-21T09:03:04;99853.09;;;8.26;100.00
19748;BME280;10032;51.386;12.516;2023-11-21T09:05:34;99851.81;;;8.29;100.00
19748;BME280;10032;51.386;12.516;2023-11-21T09:07:59;99863.50;;;8.34;100.00
19748;BME280;10032;51.386;12.516;2023-11-21T09:10:24;99864.66;;;8.38;100.00
19748;BME280;10032;51.386;12.516;2023-11-21T09:12:50;99873.06;;;8.42;100.00
19748;BME280;10032;51.386;12.516;2023-11-21T09:15:17;99877.63;;;8.41;100.00
19748;BME280;10032;51.386;12.516;2023-11-21T09:17:42;99873.81;;;8.37;100.00
19748;BME280;10032;51.386;12.516;2023-11-21T09:20:10;99888.34;;;8.36;100.00
19748;BME280;10032;51.386;12.516;2023-11-21T09:22:35;99878.38;;;8.37;100.00
19748;BME280;10032;51.386;12.516;2023-11-21T09:25:01;99887.22;;;8.32;100.00
19748;BME280;10032;51.386;12.516;2023-11-21T09:27:30;99894.91;;;8.40;100.00
19748;BME280;10032;51.386;12.516;2023-11-21T09:29:56;99887.13;;;8.44;100.00
19748;BME280;10032;51.386;12.516;2023-11-21T09:32:23;99900.81;;;8.37;100.00
19748;BME280;10032;51.386;12.516;2023-11-21T09:34:49;99896.31;;;8.43;100.00
19748;BME280;10032;51.386;12.516;2023-11-21T09:37:15;99904.41;;;8.43;100.00
19748;BME280;10032;51.386;12.516;2023-11-21T09:39:41;99901.94;;;8.41;100.00
19748;BME280;10032;51.386;12.516;2023-11-21T09:42:13;99912.72;;;8.41;100.00
19748;BME280;10032;51.386;12.516;2023-11-21T09:44:50;99898.53;;;8.46;100.00
19748;BME280;10032;51.386;12.516;2023-11-21T09:47:18;99910.31;;;8.40;100.00
19748;BME280;10032;51.386;12.516;2023-11-21T09:49:48;99901.47;;;8.44;100.00
19748;BME280;10032;51.386;12.516;2023-11-21T09:52:51;99919.44;;;8.39;100.00
19748;BME280;10032;51.386;12.516;2023-11-21T09:55:20;99915.34;;;8.36;100.00
19748;BME280;10032;51.386;12.516;2023-11-21T09:57:47;99925.00;;;8.32;100.00
19748;BME280;10032;51.386;12.516;2023-11-21T10:00:14;99923.38;;;8.31;100.00
19748;BME280;10032;51.386;12.516;2023-11-21T10:02:43;99932.50;;;8.30;100.00
19748;BME280;10032;51.386;12.516;2023-11-21T10:05:08;99933.78;;;8.28;100.00
19748;BME280;10032;51.386;12.516;2023-11-21T10:07:35;99937.22;;;8.23;100.00
19748;BME280;10032;51.386;12.516;2023-11-21T10:10:01;99935.94;;;8.26;100.00
19748;BME280;10032;51.386;12.516;2023-11-21T10:12:28;99936.03;;;8.31;100.00
19748;BME280;10032;51.386;12.516;2023-11-21T10:14:56;99934.63;;;8.28;100.00
19748;BME280;10032;51.386;12.516;2023-11-21T10:17:23;99943.56;;;8.17;100.00
19748;BME280;10032;51.386;12.516;2023-11-21T10:19:52;99947.28;;;8.28;100.00
19748;BME280;10032;51.386;12.516;2023-11-21T10:22:19;99943.91;;;8.21;100.00
19748;BME280;10032;51.386;12.516;2023-11-21T10:24:45;99946.72;;;8.14;100.00
19748;BME280;10032;51.386;12.516;2023-11-21T10:27:11;99937.81;;;8.14;100.00
19748;BME280;10032;51.386;12.516;2023-11-21T10:29:39;99951.66;;;8.06;100.00
19748;BME280;10032;51.386;12.516;2023-11-21T10:32:04;99956.81;;;8.07;100.00
19748;BME280;10032;51.386;12.516;2023-11-21T10:34:31;99948.75;;;7.96;100.00
19748;BME280;10032;51.386;12.516;2023-11-21T10:36:57;99953.22;;;7.90;100.00
19748;BME280;10032;51.386;12.516;2023-11-21T10:39:24;99968.47;;;7.96;100.00
19748;BME280;10032;51.386;12.516;2023-11-21T10:41:53;99955.69;;;7.92;100.00
19748;BME280;10032;51.386;12.516;2023-11-21T10:44:19;99968.34;;;7.80;100.00
19748;BME280;10032;51.386;12.516;2023-11-21T10:46:50;99970.81;;;7.70;100.00
19748;BME280;10032;51.386;12.516;2023-11-21T10:49:18;99962.38;;;7.66;100.00
19748;BME280;10032;51.386;12.516;2023-11-21T10:51:44;99963.44;;;7.65;100.00
19748;BME280;10032;51.386;12.516;2023-11-21T10:54:10;99965.56;;;7.63;100.00
19748;BME280;10032;51.386;12.516;2023-11-21T10:56:39;99964.97;;;7.61;100.00
19748;BME280;10032;51.386;12.516;2023-11-21T10:59:09;99964.97;;;7.61;100.00
19748;BME280;10032;51.386;12.516;2023-11-21T11:01:49;99980.22;;;7.56;100.00
19748;BME280;10032;51.386;12.516;2023-11-21T11:04:18;99974.59;;;7.57;100.00
19748;BME280;10032;51.386;12.516;2023-11-21T11:06:44;99978.56;;;7.66;100.00
19748;BME280;10032;51.386;12.516;2023-11-21T11:09:13;99977.16;;;7.64;100.00
19748;BME280;10032;51.386;12.516;2023-11-21T11:11:41;99980.91;;;7.51;100.00
19748;BME280;10032;51.386;12.516;2023-11-21T11:14:10;99976.69;;;7.55;100.00
19748;BME280;10032;51.386;12.516;2023-11-21T11:16:38;99980.44;;;7.54;100.00
19748;BME280;10032;51.386;12.516;2023-11-21T11:19:09;99985.47;;;7.62;100.00
19748;BME280;10032;51.386;12.516;2023-11-21T11:37:43;99999.66;;;7.58;100.00
19748;BME280;10032;51.386;12.516;2023-11-21T11:40:11;100012.56;;;7.56;100.00
19748;BME280;10032;51.386;12.516;2023-11-21T11:42:36;100008.22;;;7.55;100.00
19748;BME280;10032;51.386;12.516;2023-11-21T11:45:17;100006.56;;;7.54;100.00
19748;BME280;10032;51.386;12.516;2023-11-21T11:47:42;100008.47;;;7.53;100.00
19748;BME280;10032;51.386;12.516;2023-11-21T11:50:11;100024.50;;;7.48;100.00
19748;BME280;10032;51.386;12.516;2023-11-21T11:52:47;100026.25;;;7.43;100.00
19748;BME280;10032;51.386;12.516;2023-11-21T11:55:14;100034.09;;;7.44;100.00
19748;BME280;10032;51.386;12.516;2023-11-21T11:57:42;100036.78;;;7.33;100.00
19748;BME280;10032;51.386;12.516;2023-11-21T12:00:18;100032.78;;;7.24;100.00
19748;BME280;10032;51.386;12.516;2023-11-21T12:02:57;100040.38;;;7.15;100.00
19748;BME280;10032;51.386;12.516;2023-11-21T12:05:25;100050.28;;;7.03;100.00
19748;BME280;10032;51.386;12.516;2023-11-21T12:07:57;100045.50;;;7.05;100.00
19748;BME280;10032;51.386;12.516;2023-11-21T12:10:23;100059.00;;;6.87;100.00
19748;BME280;10032;51.386;12.516;2023-11-21T12:12:51;100064.84;;;6.84;100.00
19748;BME280;10032;51.386;12.516;2023-11-21T12:15:21;100058.72;;;6.77;100.00
19748;BME280;10032;51.386;12.516;2023-11-21T12:17:47;100062.94;;;6.73;100.00
19748;BME280;10032;51.386;12.516;2023-11-21T12:20:15;100066.75;;;6.66;100.00
19748;BME280;10032;51.386;12.516;2023-11-21T12:22:46;100079.69;;;6.57;100.00
19748;BME280;10032;51.386;12.516;2023-11-21T12:25:18;100091.66;;;6.43;100.00
19748;BME280;10032;51.386;12.516;2023-11-21T12:27:52;100091.44;;;6.45;100.00
19748;BME280;10032;51.386;12.516;2023-11-21T12:30:23;100098.25;;;6.47;100.00
19748;BME280;10032;51.386;12.516;2023-11-21T12:32:51;100101.69;;;6.36;100.00
19748;BME280;10032;51.386;12.516;2023-11-21T12:35:18;100099.84;;;6.30;100.00
19748;BME280;10032;51.386;12.516;2023-11-21T12:37:47;100102.53;;;6.30;100.00
19748;BME280;10032;51.386;12.516;2023-11-21T12:40:14;100103.31;;;6.37;100.00
19748;BME280;10032;51.386;12.516;2023-11-21T12:42:47;100108.69;;;6.37;100.00
19748;BME280;10032;51.386;12.516;2023-11-21T12:47:53;100116.00;;;6.30;100.00
19748;BME280;10032;51.386;12.516;2023-11-21T12:50:22;100111.81;;;6.34;100.00
19748;BME280;10032;51.386;12.516;2023-11-21T12:52:50;100119.41;;;6.44;100.00
19748;BME280;10032;51.386;12.516;2023-11-21T12:55:20;100123.03;;;6.49;100.00
19748;BME280;10032;51.386;12.516;2023-11-21T12:57:53;100120.66;;;6.59;100.00
19748;BME280;10032;51.386;12.516;2023-11-21T13:00:27;100125.22;;;6.59;100.00
19748;BME280;10032;51.386;12.516;2023-11-21T13:02:54;100124.03;;;6.55;100.00
19748;BME280;10032;51.386;12.516;2023-11-21T13:05:33;100130.06;;;6.50;100.00